Time;durP1;ratioP1;P1;durP2;ratioP2;P2;SDS_P1;SDS_P2;PMS_P1;PMS_P2;Temp;Humidity;BMP_temperature;BMP_pressure;BME280_temperature;BME280_humidity;BME280_pressure;Samples;Min_cycle;Max_cycle;Signal;HPM_P1;HPM_P2
2022/11/07 00:00:50;;;;;;;9.63;2.73;;;;;;;9.55;100.00;100641.63;5225232;28;20026;-71
2022/11/07 00:03:22;;;;;;;6.80;2.70;;;;;;;9.76;100.00;100658.75;5230230;28;20030;-71
2022/11/07 00:05:53;;;;;;;7.17;2.93;;;;;;;9.67;100.00;100660.97;5232396;28;20030;-70
2022/11/07 00:08:30;;;;;;;8.17;2.80;;;;;;;9.60;100.00;100662.28;5234704;28;20025;-70
2022/11/07 00:11:04;;;;;;;8.03;2.70;;;;;;;9.59;100.00;100660.59;5234809;28;20049;-70
2022/11/07 00:13:35;;;;;;;7.77;3.47;;;;;;;9.61;100.00;100663.13;5233271;28;20516;-71
2022/11/07 00:16:09;;;;;;;13.13;4.30;;;;;;;9.62;100.00;100665.66;5218622;28;20032;-70
2022/11/07 00:18:40;;;;;;;6.83;2.93;;;;;;;9.47;100.00;100654.31;5227484;28;20034;-70
2022/11/07 00:21:11;;;;;;;6.23;2.30;;;;;;;9.54;100.00;100680.94;5214007;28;20084;-70
2022/11/07 00:23:42;;;;;;;6.63;2.80;;;;;;;9.41;100.00;100673.81;5216398;28;20112;-73
2022/11/07 00:26:14;;;;;;;12.60;3.50;;;;;;;9.49;100.00;100691.69;5232769;28;20396;-70
2022/11/07 00:28:45;;;;;;;6.97;2.90;;;;;;;9.41;100.00;100678.19;5232025;28;20041;-70
2022/11/07 00:31:18;;;;;;;9.03;3.20;;;;;;;9.41;100.00;100676.41;5232663;28;20033;-70
2022/11/07 00:33:50;;;;;;;7.70;2.37;;;;;;;9.42;100.00;100683.34;5225789;28;20043;-71
2022/11/07 00:36:24;;;;;;;11.37;3.67;;;;;;;9.42;100.00;100685.13;5223950;28;20062;-70
2022/11/07 00:38:55;;;;;;;13.13;3.45;;;;;;;9.41;100.00;100681.66;5230083;28;20045;-70
2022/11/07 00:41:27;;;;;;;8.00;2.83;;;;;;;9.42;100.00;100674.66;5228550;28;20504;-70
2022/11/07 00:43:58;;;;;;;14.07;3.43;;;;;;;9.35;100.00;100670.72;5219692;28;20104;-70
2022/11/07 00:46:29;;;;;;;10.87;3.03;;;;;;;9.43;100.00;100677.19;5234457;28;20065;-72
2022/11/07 00:49:01;;;;;;;6.83;2.90;;;;;;;9.37;100.00;100681.94;5216815;28;20026;-71
2022/11/07 00:51:32;;;;;;;8.90;2.40;;;;;;;9.40;100.00;100693.06;5235190;28;20037;-71
2022/11/07 00:54:04;;;;;;;9.87;2.73;;;;;;;9.36;100.00;100688.91;5233702;28;20194;-72
2022/11/07 00:56:35;;;;;;;8.13;3.43;;;;;;;9.43;100.00;100692.88;5235642;28;20041;-73
2022/11/07 00:59:07;;;;;;;9.20;2.93;;;;;;;9.31;100.00;100696.19;5234118;28;20033;-71
2022/11/07 01:01:38;;;;;;;10.93;2.70;;;;;;;9.31;100.00;100698.78;5228807;28;20033;-71
2022/11/07 01:07:02;;;;;;;16.87;3.93;;;;;;;9.41;100.00;100693.88;5214528;28;20073;-70
2022/11/07 01:09:33;;;;;;;7.37;2.30;;;;;;;9.37;100.00;100700.22;5229251;28;20057;-71
2022/11/07 01:12:05;;;;;;;11.60;2.80;;;;;;;9.32;100.00;100695.22;5216558;28;20030;-70
2022/11/07 01:14:36;;;;;;;10.63;3.20;;;;;;;9.38;100.00;100696.66;5242797;28;20033;-70
2022/11/07 01:17:08;;;;;;;9.53;2.67;;;;;;;9.37;100.00;100708.91;5226314;28;20030;-71
2022/11/07 01:19:39;;;;;;;10.47;2.77;;;;;;;9.43;100.00;100711.16;5233624;28;20030;-71
2022/11/07 01:22:10;;;;;;;7.10;2.77;;;;;;;9.40;100.00;100711.34;5233262;28;20487;-71
2022/11/07 01:24:42;;;;;;;7.43;2.53;;;;;;;9.41;100.00;100731.31;5224808;28;20034;-70
2022/11/07 01:27:13;;;;;;;10.97;3.23;;;;;;;9.41;100.00;100718.25;5220823;28;20021;-69
2022/11/07 01:29:44;;;;;;;9.63;3.30;;;;;;;9.40;100.00;100721.81;5227714;28;20040;-70
2022/11/07 01:32:16;;;;;;;12.83;3.10;;;;;;;9.38;100.00;100722.81;5219873;28;20112;-72
2022/11/07 01:34:47;;;;;;;10.73;3.27;;;;;;;9.39;100.00;100722.72;5220362;28;20029;-70
2022/11/07 01:37:18;;;;;;;9.53;2.87;;;;;;;9.42;100.00;100727.78;5233436;28;20079;-70
2022/11/07 01:39:50;;;;;;;8.67;2.50;;;;;;;9.40;100.00;100715.72;5232047;28;20065;-70
2022/11/07 01:42:21;;;;;;;10.13;3.53;;;;;;;9.40;100.00;100719.19;5222986;28;20029;-70
2022/11/07 01:44:56;;;;;;;10.27;3.30;;;;;;;9.53;100.00;100731.56;5225302;28;20029;-71
2022/11/07 01:47:34;;;;;;;9.87;2.53;;;;;;;9.55;100.00;100722.69;5215674;28;20109;-71
2022/11/07 01:50:06;;;;;;;6.97;2.93;;;;;;;9.55;100.00;100727.06;5228676;28;20137;-71
2022/11/07 01:52:42;;;;;;;9.20;2.77;;;;;;;9.56;100.00;100729.59;5234740;28;20079;-71
2022/11/07 01:55:18;;;;;;;9.83;2.80;;;;;;;9.53;100.00;100726.34;5234648;28;20152;-73
2022/11/07 01:57:56;;;;;;;11.13;3.13;;;;;;;9.53;100.00;100727.16;5214588;28;20052;-70
2022/11/07 02:00:28;;;;;;;7.57;2.27;;;;;;;9.56;100.00;100728.75;5213251;28;20080;-70
2022/11/07 02:03:08;;;;;;;8.70;3.10;;;;;;;9.56;100.00;100728.75;5275645;22;20092;-71
2022/11/07 02:05:45;;;;;;;8.80;2.67;;;;;;;9.54;100.00;100736.69;5212077;28;20037;-71
2022/11/07 02:08:18;;;;;;;8.07;2.70;;;;;;;9.53;100.00;100724.53;5233037;28;20463;-71
2022/11/07 02:10:51;;;;;;;9.23;3.27;;;;;;;9.57;100.00;100743.50;5231020;28;20044;-72
2022/11/07 02:13:28;;;;;;;8.40;2.83;;;;;;;9.58;100.00;100726.91;5231195;28;20032;-73
2022/11/07 02:16:02;;;;;;;12.23;3.60;;;;;;;9.54;100.00;100733.22;5233508;28;20099;-71
2022/11/07 02:18:37;;;;;;;8.77;2.70;;;;;;;9.56;100.00;100736.59;5235341;28;20033;-71
2022/11/07 02:21:41;;;;;;;15.87;3.70;;;;;;;9.60;100.00;100734.66;5233903;28;20680;-73
2022/11/07 02:24:22;;;;;;;12.10;3.20;;;;;;;9.60;100.00;100732.88;5237212;28;20535;-73
2022/11/07 02:26:56;;;;;;;12.03;3.23;;;;;;;9.58;100.00;100723.44;5234966;28;20305;-70
2022/11/07 02:29:28;;;;;;;6.37;2.40;;;;;;;9.54;100.00;100730.63;5232580;28;20029;-70
2022/11/07 02:32:04;;;;;;;12.23;3.13;;;;;;;9.53;100.00;100729.78;5234159;28;20029;-70
2022/11/07 02:34:36;;;;;;;11.97;3.90;;;;;;;9.49;100.00;100732.66;5234086;28;20030;-71
2022/11/07 02:37:25;;;;;;;8.30;3.70;;;;;;;9.57;100.00;100735.66;5234766;28;20038;-71
2022/11/07 02:39:59;;;;;;;12.50;2.90;;;;;;;9.58;100.00;100737.38;5234350;28;20041;-73
2022/11/07 02:42:44;;;;;;;12.07;3.80;;;;;;;9.63;100.00;100730.09;5236321;28;20045;-71
2022/11/07 02:45:20;;;;;;;9.13;2.92;;;;;;;9.61;100.00;100734.56;5236579;28;20076;-73
2022/11/07 02:47:51;;;;;;;10.23;3.37;;;;;;;9.46;100.00;100712.75;5237156;28;20467;-72
2022/11/07 02:50:23;;;;;;;11.80;2.90;;;;;;;9.64;100.00;100723.06;5236961;28;20029;-72
2022/11/07 02:52:54;;;;;;;12.40;2.77;;;;;;;9.57;100.00;100727.81;5236833;28;20056;-71
2022/11/07 02:55:25;;;;;;;13.37;3.10;;;;;;;9.55;100.00;100727.06;5237253;28;20041;-70
2022/11/07 02:57:57;;;;;;;12.37;2.90;;;;;;;9.58;100.00;100734.75;5236457;28;20043;-73
2022/11/07 03:00:28;;;;;;;9.27;2.57;;;;;;;9.51;100.00;100725.56;5236319;28;20033;-73
2022/11/07 03:02:59;;;;;;;12.50;3.30;;;;;;;9.50;100.00;100718.63;5236547;28;20085;-71
2022/11/07 03:05:30;;;;;;;11.97;3.40;;;;;;;9.56;100.00;100726.16;5237165;28;20025;-70
2022/11/07 03:08:02;;;;;;;12.30;3.80;;;;;;;9.53;100.00;100728.94;5267569;28;20033;-71
2022/11/07 03:10:33;;;;;;;11.27;3.47;;;;;;;9.47;100.00;100717.06;5238493;28;20032;-70
2022/11/07 03:13:04;;;;;;;14.50;3.03;;;;;;;9.49;100.00;100728.28;5239321;28;20084;-71
2022/11/07 03:15:36;;;;;;;15.20;3.97;;;;;;;9.47;100.00;100724.06;5236089;28;20433;-73
2022/11/07 03:18:07;;;;;;;9.70;2.63;;;;;;;9.47;100.00;100726.66;5236212;28;20055;-71
2022/11/07 03:20:38;;;;;;;12.30;3.57;;;;;;;9.48;100.00;100731.00;5236831;28;20029;-70
2022/11/07 03:23:10;;;;;;;15.10;3.17;;;;;;;9.47;100.00;100729.28;5236476;28;20040;-73
2022/11/07 03:25:41;;;;;;;12.57;2.77;;;;;;;9.49;100.00;100730.03;5235970;28;20080;-71
2022/11/07 03:28:12;;;;;;;16.27;4.47;;;;;;;9.53;100.00;100728.94;5234855;28;20519;-73
2022/11/07 03:30:44;;;;;;;13.03;3.13;;;;;;;9.47;100.00;100719.69;5235446;28;20364;-68
2022/11/07 03:33:15;;;;;;;16.30;3.37;;;;;;;9.48;100.00;100721.34;5236337;28;20025;-70
2022/11/07 03:35:46;;;;;;;17.80;3.50;;;;;;;9.55;100.00;100721.84;5236513;28;20021;-70
2022/11/07 03:38:17;;;;;;;16.10;3.53;;;;;;;9.52;100.00;100725.47;5235192;28;20037;-71
2022/11/07 03:40:49;;;;;;;7.07;3.27;;;;;;;9.53;100.00;100729.78;5235761;28;20029;-70
2022/11/07 03:43:20;;;;;;;13.83;3.70;;;;;;;9.60;100.00;100732.88;5234853;28;20044;-69
2022/11/07 03:45:51;;;;;;;14.23;4.13;;;;;;;9.65;100.00;100733.44;5231665;28;20057;-71
2022/11/07 03:48:22;;;;;;;17.13;4.07;;;;;;;9.66;100.00;100729.91;5233945;28;20429;-71
2022/11/07 03:50:54;;;;;;;11.93;3.00;;;;;;;9.66;100.00;100737.75;5233201;28;20037;-72
2022/11/07 03:53:25;;;;;;;11.13;2.67;;;;;;;9.63;100.00;100730.09;5233924;28;20033;-70
2022/11/07 03:55:57;;;;;;;11.83;3.20;;;;;;;9.63;100.00;100735.34;5233041;28;20045;-73
2022/11/07 03:58:28;;;;;;;10.83;2.87;;;;;;;9.67;100.00;100731.59;5234808;28;20434;-70
2022/11/07 04:01:00;;;;;;;14.83;3.73;;;;;;;9.65;100.00;100727.41;5232553;28;20052;-70
2022/11/07 04:03:31;;;;;;;22.57;4.37;;;;;;;9.64;100.00;100717.84;5233005;28;20060;-71
2022/11/07 04:06:03;;;;;;;13.10;3.00;;;;;;;9.64;100.00;100715.22;5233307;28;20072;-70
2022/11/07 04:08:34;;;;;;;13.77;3.00;;;;;;;9.70;100.00;100712.28;5233119;28;20490;-70
2022/11/07 04:11:05;;;;;;;16.60;3.60;;;;;;;9.72;100.00;100727.88;5232574;28;20144;-70
2022/11/07 04:19:17;;;;;;;15.67;3.13;;;;;;;9.74;100.00;100732.06;5232608;28;20042;-70
2022/11/07 04:21:48;;;;;;;13.83;3.87;;;;;;;9.74;100.00;100736.47;5232837;28;20468;-71
2022/11/07 04:24:19;;;;;;;16.57;3.80;;;;;;;9.71;100.00;100731.41;5233064;28;20522;-73
2022/11/07 04:29:40;;;;;;;14.90;3.47;;;;;;;9.74;100.00;100731.25;5232583;28;20049;-71
2022/11/07 04:32:12;;;;;;;16.27;3.97;;;;;;;9.65;100.00;100717.75;5232247;28;20377;-72
2022/11/07 04:34:43;;;;;;;15.70;3.20;;;;;;;9.74;100.00;100746.94;5232705;28;20105;-71
2022/11/07 04:37:15;;;;;;;15.53;3.93;;;;;;;9.71;100.00;100742.72;5232151;28;20480;-69
2022/11/07 04:39:46;;;;;;;12.47;3.60;;;;;;;9.67;100.00;100735.97;5232359;28;20029;-70
2022/11/07 04:42:18;;;;;;;12.30;2.90;;;;;;;9.64;100.00;100725.69;5232345;28;20194;-70
2022/11/07 04:44:49;;;;;;;16.00;4.07;;;;;;;9.68;100.00;100743.75;5231428;28;20460;-70
2022/11/07 04:47:20;;;;;;;23.07;3.67;;;;;;;9.62;100.00;100738.00;5237024;28;20447;-71
2022/11/07 04:49:51;;;;;;;18.03;3.67;;;;;;;9.67;100.00;100744.66;5233042;28;20457;-71
2022/11/07 04:52:23;;;;;;;14.90;3.17;;;;;;;9.69;100.00;100744.56;5232397;28;20503;-70
2022/11/07 04:54:54;;;;;;;15.13;3.43;;;;;;;9.74;100.00;100741.72;5232395;28;20021;-71
2022/11/07 04:57:26;;;;;;;17.50;3.47;;;;;;;9.71;100.00;100734.88;5230565;28;20055;-70
2022/11/07 04:59:57;;;;;;;15.13;3.63;;;;;;;9.75;100.00;100741.63;5230909;28;20112;-70
2022/11/07 05:02:28;;;;;;;20.27;3.83;;;;;;;9.73;100.00;100735.63;5231239;28;20045;-70
2022/11/07 05:04:59;;;;;;;14.27;2.87;;;;;;;9.74;100.00;100742.53;5231396;28;20064;-70
2022/11/07 05:07:31;;;;;;;13.50;3.30;;;;;;;9.75;100.00;100753.84;5230900;28;20458;-70
2022/11/07 05:10:03;;;;;;;17.00;4.27;;;;;;;9.82;100.00;100749.94;5231531;28;20040;-69
2022/11/07 05:12:34;;;;;;;15.87;3.70;;;;;;;9.79;100.00;100750.13;5232100;28;20310;-70
2022/11/07 05:15:06;;;;;;;14.43;3.90;;;;;;;9.92;100.00;100748.47;5230044;28;20032;-70
2022/11/07 05:17:37;;;;;;;16.73;3.40;;;;;;;9.77;100.00;100736.28;5231720;28;20095;-72
2022/11/07 05:20:28;;;;;;;12.43;3.87;;;;;;;9.89;100.00;100759.13;5231741;28;20064;-71
2022/11/07 05:23:13;;;;;;;14.43;3.93;;;;;;;9.84;100.00;100760.31;5231223;28;20041;-70
2022/11/07 05:25:46;;;;;;;12.70;3.10;;;;;;;9.86;100.00;100761.91;5230940;28;20489;-71
2022/11/07 05:28:29;;;;;;;16.77;4.07;;;;;;;9.86;100.00;100751.44;5230928;28;20025;-73
2022/11/07 05:31:02;;;;;;;17.53;4.03;;;;;;;9.90;100.00;100758.19;5236345;28;20048;-71
2022/11/07 05:33:34;;;;;;;12.47;3.37;;;;;;;9.91;100.00;100754.63;5231211;28;20049;-73
2022/11/07 05:36:11;;;;;;;16.47;3.30;;;;;;;9.91;100.00;100765.09;5229345;28;20061;-71
2022/11/07 05:38:45;;;;;;;13.73;3.00;;;;;;;9.93;100.00;100763.22;5231082;28;20132;-74
2022/11/07 05:41:18;;;;;;;13.73;3.55;;;;;;;9.92;100.00;100761.56;5231002;28;20411;-70
2022/11/07 05:43:50;;;;;;;19.03;4.40;;;;;;;9.89;100.00;100763.50;5230324;28;20044;-71
2022/11/07 05:46:21;;;;;;;15.63;3.53;;;;;;;9.96;100.00;100758.75;5229287;28;20037;-71
2022/11/07 05:48:52;;;;;;;17.17;3.90;;;;;;;9.93;100.00;100763.22;5229737;28;20113;-71
2022/11/07 05:51:23;;;;;;;17.93;4.37;;;;;;;9.93;100.00;100762.41;5256721;28;20029;-70
2022/11/07 05:53:55;;;;;;;22.53;4.70;;;;;;;9.94;100.00;100769.31;5231907;28;20087;-73
2022/11/07 05:56:26;;;;;;;18.13;3.77;;;;;;;9.79;100.00;100744.91;5232941;28;20048;-73
2022/11/07 05:58:57;;;;;;;18.50;4.20;;;;;;;9.90;100.00;100763.41;5232042;28;20086;-71
2022/11/07 06:01:28;;;;;;;18.47;3.33;;;;;;;9.92;100.00;100761.56;5230492;28;20030;-71
2022/11/07 06:04:02;;;;;;;13.37;2.83;;;;;;;9.93;100.00;100758.00;5230716;28;20033;-71
2022/11/07 06:06:33;;;;;;;20.48;3.72;;;;;;;9.88;100.00;100746.97;5230613;28;20618;-70
2022/11/07 06:09:05;;;;;;;16.30;3.77;;;;;;;9.92;100.00;100753.72;5230920;28;20115;-71
2022/11/07 06:11:36;;;;;;;20.60;4.20;;;;;;;10.02;100.00;100754.00;5230817;28;20132;-71
2022/11/07 06:14:08;;;;;;;24.23;3.53;;;;;;;9.95;100.00;100744.81;5260208;28;20136;-70
2022/11/07 06:16:39;;;;;;;14.80;2.83;;;;;;;10.01;100.00;100754.09;5229466;28;20040;-70
2022/11/07 06:19:10;;;;;;;16.10;4.10;;;;;;;10.06;100.00;100762.50;5228485;28;20084;-70
2022/11/07 06:21:41;;;;;;;16.50;3.63;;;;;;;10.05;100.00;100763.47;5229021;28;20064;-72
2022/11/07 06:24:13;;;;;;;20.03;4.23;;;;;;;10.07;100.00;100761.56;5258870;28;20018;-71
2022/11/07 06:26:44;;;;;;;12.20;3.63;;;;;;;10.08;100.00;100762.41;5228784;28;20025;-70
2022/11/07 06:29:15;;;;;;;17.17;3.70;;;;;;;10.03;100.00;100758.31;5228253;28;20110;-73
2022/11/07 06:31:47;;;;;;;12.13;2.80;;;;;;;10.12;100.00;100767.38;5229671;28;20116;-70
2022/11/07 06:34:18;;;;;;;17.87;3.50;;;;;;;10.09;100.00;100769.34;5230570;28;20030;-70
2022/11/07 06:36:53;;;;;;;14.17;2.90;;;;;;;10.13;100.00;100766.47;5229847;28;20033;-70
2022/11/07 06:39:24;;;;;;;15.10;3.83;;;;;;;10.13;100.00;100774.31;5230678;28;20034;-70
2022/11/07 06:41:56;;;;;;;19.10;3.77;;;;;;;10.14;100.00;100770.75;5230068;28;20037;-70
2022/11/07 06:44:27;;;;;;;12.40;2.63;;;;;;;10.19;100.00;100769.66;5229001;28;20502;-71
2022/11/07 06:46:58;;;;;;;16.83;3.53;;;;;;;10.22;100.00;100779.91;5230548;28;20488;-70
2022/11/07 06:49:30;;;;;;;16.57;4.70;;;;;;;10.18;100.00;100776.66;5230263;28;20472;-71
2022/11/07 06:52:01;;;;;;;19.27;3.93;;;;;;;10.21;100.00;100791.34;5229800;28;20029;-73
2022/11/07 06:54:32;;;;;;;14.20;4.33;;;;;;;10.21;100.00;100793.94;5233801;28;20046;-70
2022/11/07 06:57:04;;;;;;;19.83;4.83;;;;;;;10.29;100.00;100794.34;5229904;28;20484;-70
2022/11/07 06:59:35;;;;;;;22.33;5.20;;;;;;;10.35;100.00;100793.13;5230359;28;20033;-71
2022/11/07 07:02:11;;;;;;;19.20;4.40;;;;;;;10.36;100.00;100793.03;5234657;28;20051;-70
2022/11/07 07:04:42;;;;;;;16.97;3.47;;;;;;;10.35;100.00;100793.94;5235627;28;20124;-73
2022/11/07 07:07:14;;;;;;;19.73;4.07;;;;;;;10.39;100.00;100797.25;5233259;28;20109;-70
2022/11/07 07:09:45;;;;;;;17.53;3.00;;;;;;;10.50;100.00;100799.25;5235723;28;20091;-71
2022/11/07 07:12:16;;;;;;;16.63;3.97;;;;;;;10.41;100.00;100808.47;5239533;28;20356;-73
2022/11/07 07:14:48;;;;;;;23.23;4.13;;;;;;;10.40;100.00;100806.78;5233827;28;20033;-70
2022/11/07 07:17:19;;;;;;;18.03;4.73;;;;;;;10.47;100.00;100813.34;5236628;28;20029;-71
2022/11/07 07:19:51;;;;;;;15.60;3.90;;;;;;;10.40;100.00;100802.38;5235226;28;20087;-74
2022/11/07 07:22:23;;;;;;;14.13;4.00;;;;;;;10.47;100.00;100820.34;5250547;28;20021;-71
2022/11/07 07:24:54;;;;;;;19.57;3.67;;;;;;;10.46;100.00;100809.03;5235458;28;20113;-70
2022/11/07 07:27:26;;;;;;;18.00;3.47;;;;;;;10.59;100.00;100816.19;5232398;28;20021;-71
2022/11/07 07:29:57;;;;;;;17.53;3.47;;;;;;;10.57;100.00;100818.91;5243074;28;20030;-71
2022/11/07 07:32:28;;;;;;;21.23;4.73;;;;;;;10.58;100.00;100820.56;5234374;28;20045;-70
2022/11/07 07:34:59;;;;;;;16.80;3.60;;;;;;;10.61;100.00;100819.56;5235244;28;20079;-72
2022/11/07 07:37:31;;;;;;;15.67;4.20;;;;;;;10.71;100.00;100831.16;5236511;28;20030;-71
2022/11/07 07:40:02;;;;;;;14.40;2.73;;;;;;;10.74;100.00;100830.13;5234587;28;20069;-71
2022/11/07 07:42:39;;;;;;;17.50;3.13;;;;;;;10.77;100.00;100835.16;5231034;28;20432;-73
2022/11/07 07:45:11;;;;;;;16.93;3.50;;;;;;;10.79;100.00;100838.53;5222984;28;20108;-72
2022/11/07 07:47:43;;;;;;;16.13;3.70;;;;;;;10.74;100.00;100836.22;5224583;28;20405;-72
2022/11/07 07:50:14;;;;;;;17.83;4.77;;;;;;;10.79;100.00;100841.16;5231118;28;20033;-76
2022/11/07 07:52:45;;;;;;;14.93;3.17;;;;;;;10.72;100.00;100831.97;5231116;28;20070;-72
2022/11/07 07:55:18;;;;;;;16.37;3.47;;;;;;;10.83;100.00;100834.81;5229103;28;20075;-71
2022/11/07 07:57:49;;;;;;;20.43;4.13;;;;;;;10.91;100.00;100844.81;5230743;28;20026;-74
2022/11/07 08:00:21;;;;;;;18.47;4.23;;;;;;;10.99;100.00;100844.34;5229877;28;20132;-71
2022/11/07 08:03:02;;;;;;;17.70;4.13;;;;;;;11.08;100.00;100859.47;5230677;28;20524;-75
2022/11/07 08:05:36;;;;;;;13.70;3.67;;;;;;;11.20;100.00;100846.56;5230679;28;20105;-75
2022/11/07 08:08:08;;;;;;;12.35;4.15;;;;;;;11.30;100.00;100847.66;5231447;28;20480;-72
2022/11/07 08:10:39;;;;;;;14.50;3.87;;;;;;;11.23;100.00;100836.72;5231234;28;20034;-72
2022/11/07 08:13:11;;;;;;;15.33;3.60;;;;;;;11.32;100.00;100851.03;5226983;28;20076;-71
2022/11/07 08:15:42;;;;;;;17.77;3.77;;;;;;;11.30;100.00;100845.03;5230232;28;20022;-75
2022/11/07 08:18:13;;;;;;;9.07;3.03;;;;;;;11.42;100.00;100853.06;5230839;28;20040;-70
2022/11/07 08:20:44;;;;;;;22.27;5.13;;;;;;;11.48;100.00;100853.50;5231914;28;20100;-70
2022/11/07 08:23:16;;;;;;;19.30;4.00;;;;;;;11.44;100.00;100848.56;5235827;28;20033;-74
2022/11/07 08:25:58;;;;;;;16.90;4.00;;;;;;;11.52;100.00;100859.41;5233351;28;20029;-70
2022/11/07 08:28:32;;;;;;;15.17;3.33;;;;;;;11.57;100.00;100856.50;5231122;28;20772;-72
2022/11/07 08:31:08;;;;;;;26.60;4.32;;;;;;;11.54;100.00;100857.53;5232090;28;20756;-72
2022/11/07 08:33:39;;;;;;;15.30;4.40;;;;;;;11.48;100.00;100860.56;5231451;28;20074;-73
2022/11/07 08:36:11;;;;;;;16.57;3.70;;;;;;;11.54;100.00;100859.31;5233653;28;20029;-69
2022/11/07 08:38:42;;;;;;;15.20;3.43;;;;;;;11.36;100.00;100836.78;5232615;28;20411;-75
2022/11/07 08:41:14;;;;;;;17.17;4.40;;;;;;;11.55;100.00;100861.84;5232842;28;20091;-71
2022/11/07 08:43:46;;;;;;;12.50;3.00;;;;;;;11.57;100.00;100859.94;5230575;28;20032;-73
2022/11/07 08:46:18;;;;;;;14.03;3.23;;;;;;;11.69;100.00;100873.25;5234196;28;20044;-72
2022/11/07 08:48:50;;;;;;;15.57;3.57;;;;;;;11.73;100.00;100877.34;5235052;28;20020;-73
2022/11/07 08:51:21;;;;;;;15.27;3.60;;;;;;;11.78;100.00;100883.13;5232737;28;20034;-73
2022/11/07 08:53:52;;;;;;;12.60;3.80;;;;;;;11.79;100.00;100876.09;5231615;28;20028;-72
2022/11/07 08:56:24;;;;;;;13.27;2.77;;;;;;;11.83;100.00;100885.47;5231427;28;20107;-74
2022/11/07 08:58:55;;;;;;;16.27;3.03;;;;;;;11.93;100.00;100896.22;5246886;28;20491;-72
2022/11/07 09:01:26;;;;;;;17.30;3.73;;;;;;;11.97;100.00;100902.94;5227974;28;20024;-72
2022/11/07 09:03:57;;;;;;;14.03;3.07;;;;;;;11.94;100.00;100903.13;5230763;28;20051;-71
2022/11/07 09:06:29;;;;;;;22.00;3.43;;;;;;;11.91;100.00;100898.09;5233214;28;20025;-74
2022/11/07 09:09:01;;;;;;;12.67;3.30;;;;;;;11.94;100.00;100911.00;5228067;28;20022;-73
2022/11/07 09:11:32;;;;;;;12.43;3.77;;;;;;;11.92;100.00;100899.78;5222554;28;20037;-71
2022/11/07 09:14:04;;;;;;;15.63;3.87;;;;;;;11.97;100.00;100905.56;5230533;28;20033;-72
2022/11/07 09:16:35;;;;;;;15.00;3.30;;;;;;;11.91;100.00;100888.44;5233210;28;20030;-71
2022/11/07 09:19:06;;;;;;;12.40;2.83;;;;;;;11.98;100.00;100907.25;5233802;28;20025;-71
2022/11/07 09:21:38;;;;;;;17.83;3.43;;;;;;;12.04;100.00;100914.75;5221968;28;20022;-71
2022/11/07 09:24:09;;;;;;;14.43;2.67;;;;;;;11.98;100.00;100905.47;5225463;28;20033;-72
2022/11/07 09:26:40;;;;;;;11.17;3.60;;;;;;;11.94;100.00;100911.00;5232460;28;20617;-72
2022/11/07 09:29:12;;;;;;;16.87;3.37;;;;;;;12.01;100.00;100914.91;5230425;28;20039;-73
2022/11/07 09:31:43;;;;;;;16.07;3.33;;;;;;;11.99;100.00;100919.41;5229206;28;20931;-71
2022/11/07 09:34:14;;;;;;;16.93;4.03;;;;;;;12.07;100.00;100924.19;5227394;28;20475;-72
2022/11/07 09:36:45;;;;;;;14.93;3.43;;;;;;;12.01;100.00;100920.16;5232912;28;20701;-74
2022/11/07 09:39:17;;;;;;;12.50;3.13;;;;;;;11.99;100.00;100903.66;5232240;28;20029;-73
2022/11/07 09:41:57;;;;;;;16.97;3.97;;;;;;;12.14;100.00;100930.75;5226501;28;20075;-70
2022/11/07 09:44:55;;;;;;;12.40;3.30;;;;;;;12.13;100.00;100923.81;5230880;28;20052;-70
2022/11/07 09:47:42;;;;;;;13.10;3.17;;;;;;;12.19;100.00;100928.66;5232469;28;20578;-72
2022/11/07 09:50:24;;;;;;;15.83;4.03;;;;;;;12.20;100.00;100924.28;5231875;28;20036;-72
2022/11/07 09:53:04;;;;;;;15.80;4.10;;;;;;;12.25;100.00;100921.34;5227300;28;20026;-72
2022/11/07 09:55:40;;;;;;;17.33;3.97;;;;;;;12.25;100.00;100922.19;5231843;28;20052;-70
2022/11/07 09:58:35;;;;;;;11.10;3.70;;;;;;;12.30;100.00;100920.09;5231239;28;20045;-71
2022/11/07 10:01:15;;;;;;;16.23;2.80;;;;;;;12.34;100.00;100924.19;5250322;28;20017;-72
2022/11/07 10:03:47;;;;;;;18.17;4.40;;;;;;;12.36;100.00;100931.13;5230416;28;20499;-74
2022/11/07 10:06:32;;;;;;;10.77;2.60;;;;;;;12.45;100.00;100936.59;5231755;28;20091;-71
2022/11/07 10:09:34;;;;;;;13.37;3.17;;;;;;;12.54;100.00;100932.53;5231917;28;20065;-71
2022/11/07 10:12:06;;;;;;;17.70;2.93;;;;;;;12.55;100.00;100931.56;5230334;28;20029;-71
2022/11/07 10:15:03;;;;;;;15.10;3.67;;;;;;;12.54;100.00;100932.53;5228045;28;20484;-72
2022/11/07 10:18:01;;;;;;;15.60;3.53;;;;;;;12.55;100.00;100930.75;5215174;28;20038;-72
2022/11/07 10:21:10;;;;;;;12.47;3.43;;;;;;;12.60;100.00;100926.03;5230391;28;20075;-71
2022/11/07 10:23:42;;;;;;;14.27;3.43;;;;;;;12.61;100.00;100946.09;5218978;28;20033;-73
2022/11/07 10:26:18;;;;;;;12.87;2.73;;;;;;;12.63;100.00;100940.72;5232027;28;20028;-71
2022/11/07 10:28:58;;;;;;;14.17;3.47;;;;;;;12.70;100.00;100948.13;5229694;28;20071;-71
2022/11/07 10:31:34;;;;;;;20.40;3.93;;;;;;;12.71;100.00;100935.78;5231003;28;20029;-72
2022/11/07 10:34:33;;;;;;;18.23;4.17;;;;;;;12.86;100.00;100936.56;5224765;28;20395;-71
2022/11/07 10:37:04;;;;;;;15.27;3.27;;;;;;;12.86;100.00;100940.97;5215812;28;20499;-72
2022/11/07 10:39:36;;;;;;;16.83;3.77;;;;;;;12.86;100.00;100944.44;5236273;28;20064;-71
2022/11/07 10:42:12;;;;;;;19.03;4.83;;;;;;;12.95;100.00;100962.19;5235480;28;20025;-71
2022/11/07 10:44:44;;;;;;;16.13;3.40;;;;;;;12.99;100.00;100960.19;5230407;28;20562;-71
2022/11/07 10:47:24;;;;;;;12.20;3.90;;;;;;;13.04;100.00;100955.47;5250948;28;20056;-75
2022/11/07 10:49:57;;;;;;;12.77;2.80;;;;;;;13.14;100.00;100954.84;5241428;28;20040;-71
2022/11/07 10:52:28;;;;;;;12.63;3.87;;;;;;;13.10;100.00;100959.47;5240111;28;20056;-72
2022/11/07 10:55:07;;;;;;;16.30;3.80;;;;;;;12.97;100.00;100943.69;5234058;28;20021;-71
2022/11/07 10:57:39;;;;;;;13.37;3.37;;;;;;;13.10;100.00;100967.38;5239114;28;20036;-71
2022/11/07 11:00:23;;;;;;;14.77;3.80;;;;;;;13.17;100.00;100973.03;5235354;28;20037;-71
2022/11/07 11:02:55;;;;;;;19.15;3.78;;;;;;;13.09;100.00;100970.91;5235029;28;20055;-73
2022/11/07 11:05:29;;;;;;;13.03;3.40;;;;;;;13.14;100.00;100981.16;5233613;28;20510;-74
2022/11/07 11:08:17;;;;;;;14.02;3.08;;;;;;;13.11;100.00;100971.66;5235945;28;20041;-72
2022/11/07 11:10:49;;;;;;;12.90;2.70;;;;;;;13.07;100.00;100963.13;5235323;28;20034;-70
2022/11/07 11:13:28;;;;;;;13.23;2.67;;;;;;;13.13;100.00;100968.91;5232179;28;20044;-74
2022/11/07 11:16:20;;;;;;;13.70;2.73;;;;;;;13.10;100.00;100966.50;5235412;28;20036;-73
2022/11/07 11:18:54;;;;;;;14.70;4.00;;;;;;;13.02;100.00;100954.72;5239338;28;20104;-71
2022/11/07 11:21:36;;;;;;;11.93;2.93;;;;;;;13.07;100.00;100954.44;5234289;28;20032;-72
2022/11/07 11:24:38;;;;;;;11.07;3.17;;;;;;;13.27;100.00;100958.31;5232402;28;20021;-71
2022/11/07 11:27:18;;;;;;;12.27;2.87;;;;;;;13.18;100.00;100956.31;5227866;28;20450;-73
2022/11/07 11:30:06;;;;;;;14.77;3.23;;;;;;;13.20;100.00;100946.53;5214388;28;20021;-72
2022/11/07 11:32:47;;;;;;;20.53;3.50;;;;;;;13.26;100.00;100948.75;5231188;28;20094;-71
2022/11/07 11:35:41;;;;;;;12.70;3.67;;;;;;;13.38;100.00;100948.81;5232041;28;20033;-71
2022/11/07 11:38:18;;;;;;;17.00;4.07;;;;;;;13.48;100.00;100944.59;5234828;28;20372;-74
2022/11/07 11:41:00;;;;;;;16.37;4.17;;;;;;;13.41;100.00;100930.19;5234832;28;20456;-71
2022/11/07 11:43:42;;;;;;;10.93;2.70;;;;;;;13.61;100.00;100941.97;5232612;28;20507;-71
2022/11/07 11:46:25;;;;;;;12.03;2.73;;;;;;;13.75;100.00;100937.50;5250347;28;20025;-71
2022/11/07 11:49:04;;;;;;;14.90;3.43;;;;;;;13.81;100.00;100941.50;5232547;28;20372;-74
2022/11/07 11:51:46;;;;;;;15.70;3.10;;;;;;;13.84;100.00;100955.25;5229289;28;20124;-73
2022/11/07 11:54:18;;;;;;;13.73;3.70;;;;;;;13.78;100.00;100921.47;5230390;28;20512;-75
2022/11/07 11:56:51;;;;;;;11.40;2.83;;;;;;;13.84;100.00;100936.81;5231973;28;20032;-73